sensor_id;sensor_type;location;lat;lon;timestamp;P1;durP1;ratioP1;P2;durP2;ratioP2
14167;SDS011;7163;50.626;12.922;2023-02-23T00:00:01;38.33;;;19.27;;
14167;SDS011;7163;50.626;12.922;2023-02-23T00:05:15;38.40;;;19.90;;
14167;SDS011;7163;50.626;12.922;2023-02-23T00:10:16;35.27;;;18.47;;
14167;SDS011;7163;50.626;12.922;2023-02-23T00:15:19;28.23;;;16.40;;
14167;SDS011;7163;50.626;12.922;2023-02-23T00:20:19;29.90;;;15.00;;
14167;SDS011;7163;50.626;12.922;2023-02-23T00:25:26;30.27;;;16.87;;
14167;SDS011;7163;50.626;12.922;2023-02-23T00:30:27;25.33;;;13.53;;
14167;SDS011;7163;50.626;12.922;2023-02-23T00:35:27;25.47;;;13.47;;
14167;SDS011;7163;50.626;12.922;2023-02-23T00:40:28;30.97;;;15.77;;
14167;SDS011;7163;50.626;12.922;2023-02-23T00:45:29;27.57;;;13.93;;
14167;SDS011;7163;50.626;12.922;2023-02-23T00:50:29;24.03;;;12.77;;
14167;SDS011;7163;50.626;12.922;2023-02-23T00:55:29;19.80;;;11.97;;
14167;SDS011;7163;50.626;12.922;2023-02-23T01:00:30;22.40;;;12.97;;
14167;SDS011;7163;50.626;12.922;2023-02-23T01:05:33;18.87;;;11.47;;
14167;SDS011;7163;50.626;12.922;2023-02-23T01:10:40;17.10;;;9.47;;
14167;SDS011;7163;50.626;12.922;2023-02-23T01:15:42;17.40;;;11.10;;
14167;SDS011;7163;50.626;12.922;2023-02-23T01:20:44;17.53;;;10.93;;
14167;SDS011;7163;50.626;12.922;2023-02-23T01:25:44;16.30;;;11.20;;
14167;SDS011;7163;50.626;12.922;2023-02-23T01:30:45;15.23;;;9.77;;
14167;SDS011;7163;50.626;12.922;2023-02-23T01:35:55;16.23;;;10.20;;
14167;SDS011;7163;50.626;12.922;2023-02-23T01:40:56;22.03;;;11.50;;
14167;SDS011;7163;50.626;12.922;2023-02-23T01:45:57;17.87;;;11.00;;
14167;SDS011;7163;50.626;12.922;2023-02-23T01:56:17;18.03;;;11.27;;
14167;SDS011;7163;50.626;12.922;2023-02-23T02:01:22;15.53;;;10.07;;
14167;SDS011;7163;50.626;12.922;2023-02-23T02:06:23;20.27;;;11.80;;
14167;SDS011;7163;50.626;12.922;2023-02-23T02:11:27;16.97;;;10.83;;
14167;SDS011;7163;50.626;12.922;2023-02-23T02:22:19;15.97;;;10.03;;
14167;SDS011;7163;50.626;12.922;2023-02-23T02:27:53;14.37;;;9.17;;
14167;SDS011;7163;50.626;12.922;2023-02-23T02:33:23;14.57;;;9.00;;
14167;SDS011;7163;50.626;12.922;2023-02-23T02:44:18;15.60;;;9.27;;
14167;SDS011;7163;50.626;12.922;2023-02-23T02:49:28;18.13;;;10.03;;
14167;SDS011;7163;50.626;12.922;2023-02-23T02:54:32;14.07;;;9.53;;
14167;SDS011;7163;50.626;12.922;2023-02-23T02:59:43;15.97;;;9.27;;
14167;SDS011;7163;50.626;12.922;2023-02-23T03:05:13;13.63;;;8.20;;
14167;SDS011;7163;50.626;12.922;2023-02-23T03:10:35;10.40;;;6.70;;
14167;SDS011;7163;50.626;12.922;2023-02-23T03:22:01;11.97;;;7.30;;
14167;SDS011;7163;50.626;12.922;2023-02-23T03:27:35;8.70;;;5.90;;
14167;SDS011;7163;50.626;12.922;2023-02-23T03:33:19;10.37;;;6.50;;
14167;SDS011;7163;50.626;12.922;2023-02-23T03:38:48;11.87;;;8.23;;
14167;SDS011;7163;50.626;12.922;2023-02-23T03:44:26;11.13;;;6.90;;
14167;SDS011;7163;50.626;12.922;2023-02-23T03:49:48;11.30;;;7.07;;
14167;SDS011;7163;50.626;12.922;2023-02-23T03:55:11;11.90;;;7.20;;
14167;SDS011;7163;50.626;12.922;2023-02-23T04:00:42;13.73;;;8.93;;
14167;SDS011;7163;50.626;12.922;2023-02-23T04:06:05;15.67;;;9.80;;
14167;SDS011;7163;50.626;12.922;2023-02-23T04:11:40;13.37;;;8.40;;
14167;SDS011;7163;50.626;12.922;2023-02-23T04:17:03;14.17;;;8.50;;
14167;SDS011;7163;50.626;12.922;2023-02-23T04:22:06;12.30;;;8.33;;
14167;SDS011;7163;50.626;12.922;2023-02-23T04:27:06;15.27;;;9.27;;
14167;SDS011;7163;50.626;12.922;2023-02-23T04:32:06;17.47;;;10.47;;
14167;SDS011;7163;50.626;12.922;2023-02-23T04:37:12;24.73;;;11.00;;
14167;SDS011;7163;50.626;12.922;2023-02-23T04:42:13;17.13;;;9.47;;
14167;SDS011;7163;50.626;12.922;2023-02-23T04:47:14;26.63;;;14.10;;
14167;SDS011;7163;50.626;12.922;2023-02-23T04:52:15;18.13;;;10.93;;
14167;SDS011;7163;50.626;12.922;2023-02-23T04:57:15;16.03;;;9.03;;
14167;SDS011;7163;50.626;12.922;2023-02-23T05:02:16;11.97;;;7.93;;
14167;SDS011;7163;50.626;12.922;2023-02-23T05:07:16;12.27;;;7.27;;
14167;SDS011;7163;50.626;12.922;2023-02-23T05:12:16;15.20;;;8.30;;
14167;SDS011;7163;50.626;12.922;2023-02-23T05:17:17;171.17;;;63.40;;
14167;SDS011;7163;50.626;12.922;2023-02-23T05:22:17;157.73;;;60.00;;
14167;SDS011;7163;50.626;12.922;2023-02-23T05:27:18;68.03;;;28.77;;
14167;SDS011;7163;50.626;12.922;2023-02-23T05:32:18;30.57;;;15.70;;
14167;SDS011;7163;50.626;12.922;2023-02-23T05:37:18;31.13;;;15.77;;
14167;SDS011;7163;50.626;12.922;2023-02-23T05:42:19;25.87;;;14.27;;
14167;SDS011;7163;50.626;12.922;2023-02-23T05:47:19;25.03;;;13.40;;
14167;SDS011;7163;50.626;12.922;2023-02-23T05:52:20;23.60;;;15.53;;
14167;SDS011;7163;50.626;12.922;2023-02-23T05:57:20;29.43;;;16.77;;
14167;SDS011;7163;50.626;12.922;2023-02-23T06:02:21;41.87;;;22.57;;
14167;SDS011;7163;50.626;12.922;2023-02-23T06:07:27;35.20;;;20.50;;
14167;SDS011;7163;50.626;12.922;2023-02-23T06:12:28;28.60;;;15.40;;
14167;SDS011;7163;50.626;12.922;2023-02-23T06:17:28;25.37;;;14.23;;
14167;SDS011;7163;50.626;12.922;2023-02-23T06:22:30;27.27;;;13.80;;
14167;SDS011;7163;50.626;12.922;2023-02-23T06:27:30;19.13;;;12.43;;
14167;SDS011;7163;50.626;12.922;2023-02-23T06:32:31;26.47;;;15.73;;
14167;SDS011;7163;50.626;12.922;2023-02-23T06:37:35;23.03;;;15.23;;
14167;SDS011;7163;50.626;12.922;2023-02-23T06:42:36;16.33;;;11.17;;
14167;SDS011;7163;50.626;12.922;2023-02-23T06:47:36;20.53;;;13.40;;
14167;SDS011;7163;50.626;12.922;2023-02-23T06:52:37;30.00;;;17.53;;
14167;SDS011;7163;50.626;12.922;2023-02-23T06:57:38;25.90;;;15.37;;
14167;SDS011;7163;50.626;12.922;2023-02-23T07:02:38;20.80;;;13.33;;
14167;SDS011;7163;50.626;12.922;2023-02-23T07:07:39;25.43;;;15.20;;
14167;SDS011;7163;50.626;12.922;2023-02-23T07:12:40;30.70;;;17.20;;
14167;SDS011;7163;50.626;12.922;2023-02-23T07:17:40;48.17;;;24.37;;
14167;SDS011;7163;50.626;12.922;2023-02-23T07:22:41;58.00;;;30.63;;
14167;SDS011;7163;50.626;12.922;2023-02-23T07:27:42;140.93;;;56.10;;
14167;SDS011;7163;50.626;12.922;2023-02-23T07:32:52;55.87;;;31.13;;
14167;SDS011;7163;50.626;12.922;2023-02-23T07:37:53;47.00;;;27.77;;
14167;SDS011;7163;50.626;12.922;2023-02-23T07:42:54;42.40;;;25.03;;
14167;SDS011;7163;50.626;12.922;2023-02-23T07:47:55;40.87;;;23.53;;
14167;SDS011;7163;50.626;12.922;2023-02-23T07:52:55;26.80;;;18.93;;
14167;SDS011;7163;50.626;12.922;2023-02-23T07:57:56;30.93;;;20.13;;
14167;SDS011;7163;50.626;12.922;2023-02-23T08:03:17;28.43;;;18.67;;
14167;SDS011;7163;50.626;12.922;2023-02-23T08:08:17;23.87;;;16.10;;
14167;SDS011;7163;50.626;12.922;2023-02-23T08:13:17;26.80;;;15.10;;
14167;SDS011;7163;50.626;12.922;2023-02-23T08:18:18;22.37;;;15.53;;
14167;SDS011;7163;50.626;12.922;2023-02-23T08:23:19;22.00;;;13.93;;
14167;SDS011;7163;50.626;12.922;2023-02-23T08:28:19;19.87;;;11.90;;
14167;SDS011;7163;50.626;12.922;2023-02-23T08:33:20;21.23;;;12.30;;
14167;SDS011;7163;50.626;12.922;2023-02-23T08:38:21;18.67;;;13.03;;
14167;SDS011;7163;50.626;12.922;2023-02-23T08:43:24;20.37;;;12.90;;
14167;SDS011;7163;50.626;12.922;2023-02-23T08:48:24;18.03;;;12.70;;
14167;SDS011;7163;50.626;12.922;2023-02-23T08:53:25;18.63;;;12.20;;
14167;SDS011;7163;50.626;12.922;2023-02-23T08:58:28;14.77;;;10.43;;
14167;SDS011;7163;50.626;12.922;2023-02-23T09:03:30;16.23;;;10.37;;
14167;SDS011;7163;50.626;12.922;2023-02-23T09:08:32;15.13;;;10.03;;
14167;SDS011;7163;50.626;12.922;2023-02-23T09:13:32;13.13;;;9.50;;
14167;SDS011;7163;50.626;12.922;2023-02-23T09:18:33;15.10;;;9.40;;
14167;SDS011;7163;50.626;12.922;2023-02-23T09:23:34;14.10;;;9.67;;
14167;SDS011;7163;50.626;12.922;2023-02-23T09:28:38;13.63;;;8.63;;
14167;SDS011;7163;50.626;12.922;2023-02-23T09:33:40;11.50;;;8.37;;
14167;SDS011;7163;50.626;12.922;2023-02-23T09:38:41;10.70;;;7.83;;
14167;SDS011;7163;50.626;12.922;2023-02-23T09:49:39;15.93;;;9.20;;
14167;SDS011;7163;50.626;12.922;2023-02-23T09:54:41;10.40;;;7.88;;
14167;SDS011;7163;50.626;12.922;2023-02-23T09:59:51;11.00;;;8.10;;
14167;SDS011;7163;50.626;12.922;2023-02-23T10:04:53;11.23;;;8.48;;
14167;SDS011;7163;50.626;12.922;2023-02-23T10:10:03;11.10;;;7.68;;
14167;SDS011;7163;50.626;12.922;2023-02-23T10:26:00;14.23;;;8.73;;
14167;SDS011;7163;50.626;12.922;2023-02-23T10:31:03;13.05;;;8.20;;
14167;SDS011;7163;50.626;12.922;2023-02-23T10:36:16;13.98;;;8.18;;
14167;SDS011;7163;50.626;12.922;2023-02-23T10:41:18;11.35;;;7.20;;
14167;SDS011;7163;50.626;12.922;2023-02-23T10:46:23;13.73;;;8.40;;
14167;SDS011;7163;50.626;12.922;2023-02-23T10:51:31;21.42;;;13.50;;
14167;SDS011;7163;50.626;12.922;2023-02-23T10:56:41;17.70;;;10.43;;
14167;SDS011;7163;50.626;12.922;2023-02-23T11:01:43;15.57;;;10.05;;
14167;SDS011;7163;50.626;12.922;2023-02-23T11:06:44;20.40;;;12.98;;
14167;SDS011;7163;50.626;12.922;2023-02-23T11:11:54;19.42;;;9.77;;
14167;SDS011;7163;50.626;12.922;2023-02-23T11:16:59;17.77;;;10.70;;
14167;SDS011;7163;50.626;12.922;2023-02-23T11:22:00;16.20;;;11.57;;
14167;SDS011;7163;50.626;12.922;2023-02-23T11:27:02;15.95;;;11.38;;
14167;SDS011;7163;50.626;12.922;2023-02-23T11:32:21;14.93;;;10.40;;
14167;SDS011;7163;50.626;12.922;2023-02-23T11:37:26;15.57;;;9.98;;
14167;SDS011;7163;50.626;12.922;2023-02-23T11:42:31;15.98;;;11.77;;
14167;SDS011;7163;50.626;12.922;2023-02-23T11:47:37;16.85;;;11.88;;
14167;SDS011;7163;50.626;12.922;2023-02-23T11:52:39;16.65;;;11.80;;
14167;SDS011;7163;50.626;12.922;2023-02-23T11:57:42;16.65;;;11.32;;
14167;SDS011;7163;50.626;12.922;2023-02-23T12:02:54;21.35;;;12.77;;
14167;SDS011;7163;50.626;12.922;2023-02-23T12:08:17;17.63;;;12.07;;
14167;SDS011;7163;50.626;12.922;2023-02-23T12:13:46;25.85;;;13.15;;
14167;SDS011;7163;50.626;12.922;2023-02-23T12:19:13;17.33;;;12.25;;
14167;SDS011;7163;50.626;12.922;2023-02-23T12:29:46;21.60;;;14.60;;
14167;SDS011;7163;50.626;12.922;2023-02-23T12:35:03;16.75;;;12.77;;
14167;SDS011;7163;50.626;12.922;2023-02-23T12:40:13;21.08;;;13.68;;
14167;SDS011;7163;50.626;12.922;2023-02-23T12:45:17;16.27;;;11.87;;
14167;SDS011;7163;50.626;12.922;2023-02-23T12:50:26;22.37;;;13.93;;
14167;SDS011;7163;50.626;12.922;2023-02-23T12:55:36;18.17;;;13.47;;
14167;SDS011;7163;50.626;12.922;2023-02-23T13:16:50;24.02;;;14.48;;
14167;SDS011;7163;50.626;12.922;2023-02-23T13:22:10;21.10;;;13.93;;
14167;SDS011;7163;50.626;12.922;2023-02-23T13:32:38;26.75;;;18.55;;
14167;SDS011;7163;50.626;12.922;2023-02-23T13:42:54;27.90;;;16.80;;
14167;SDS011;7163;50.626;12.922;2023-02-23T13:48:46;25.93;;;17.30;;
14167;SDS011;7163;50.626;12.922;2023-02-23T14:04:02;26.33;;;16.43;;
14167;SDS011;7163;50.626;12.922;2023-02-23T14:09:11;31.93;;;17.53;;
14167;SDS011;7163;50.626;12.922;2023-02-23T14:14:36;31.40;;;17.30;;
14167;SDS011;7163;50.626;12.922;2023-02-23T14:19:48;27.63;;;16.00;;
14167;SDS011;7163;50.626;12.922;2023-02-23T14:30:43;27.53;;;15.97;;
14167;SDS011;7163;50.626;12.922;2023-02-23T14:35:50;32.13;;;19.20;;
14167;SDS011;7163;50.626;12.922;2023-02-23T14:40:51;25.17;;;16.13;;
14167;SDS011;7163;50.626;12.922;2023-02-23T14:45:53;28.97;;;17.47;;
14167;SDS011;7163;50.626;12.922;2023-02-23T14:56:24;23.83;;;14.17;;
14167;SDS011;7163;50.626;12.922;2023-02-23T15:01:35;23.57;;;13.37;;
14167;SDS011;7163;50.626;12.922;2023-02-23T15:06:37;33.13;;;23.60;;
14167;SDS011;7163;50.626;12.922;2023-02-23T15:11:40;24.77;;;15.77;;
14167;SDS011;7163;50.626;12.922;2023-02-23T15:16:44;27.00;;;14.43;;
14167;SDS011;7163;50.626;12.922;2023-02-23T15:21:49;22.10;;;13.47;;
14167;SDS011;7163;50.626;12.922;2023-02-23T15:26:51;22.97;;;12.87;;
14167;SDS011;7163;50.626;12.922;2023-02-23T15:31:52;28.93;;;14.43;;
14167;SDS011;7163;50.626;12.922;2023-02-23T15:42:05;19.03;;;11.50;;
14167;SDS011;7163;50.626;12.922;2023-02-23T15:47:11;16.97;;;11.10;;
14167;SDS011;7163;50.626;12.922;2023-02-23T15:52:19;22.30;;;13.97;;
14167;SDS011;7163;50.626;12.922;2023-02-23T16:02:46;25.33;;;14.00;;
14167;SDS011;7163;50.626;12.922;2023-02-23T16:07:47;48.43;;;29.20;;
14167;SDS011;7163;50.626;12.922;2023-02-23T16:13:04;23.53;;;12.37;;
14167;SDS011;7163;50.626;12.922;2023-02-23T16:18:05;20.30;;;11.90;;
14167;SDS011;7163;50.626;12.922;2023-02-23T16:23:14;26.97;;;13.13;;
14167;SDS011;7163;50.626;12.922;2023-02-23T16:28:17;22.70;;;12.87;;
14167;SDS011;7163;50.626;12.922;2023-02-23T16:33:30;23.80;;;14.70;;
14167;SDS011;7163;50.626;12.922;2023-02-23T16:38:44;29.20;;;17.07;;
14167;SDS011;7163;50.626;12.922;2023-02-23T16:43:56;29.30;;;16.97;;
14167;SDS011;7163;50.626;12.922;2023-02-23T16:48:58;38.20;;;20.27;;
14167;SDS011;7163;50.626;12.922;2023-02-23T16:54:09;36.37;;;22.17;;
14167;SDS011;7163;50.626;12.922;2023-02-23T16:59:09;35.37;;;21.43;;
14167;SDS011;7163;50.626;12.922;2023-02-23T17:04:13;37.37;;;23.53;;
14167;SDS011;7163;50.626;12.922;2023-02-23T17:09:15;55.93;;;32.10;;
14167;SDS011;7163;50.626;12.922;2023-02-23T17:14:33;49.73;;;30.73;;
14167;SDS011;7163;50.626;12.922;2023-02-23T17:19:34;59.70;;;34.93;;
14167;SDS011;7163;50.626;12.922;2023-02-23T17:24:34;55.40;;;29.93;;
14167;SDS011;7163;50.626;12.922;2023-02-23T17:29:34;60.47;;;29.50;;
14167;SDS011;7163;50.626;12.922;2023-02-23T17:34:35;48.80;;;27.00;;
14167;SDS011;7163;50.626;12.922;2023-02-23T17:39:35;64.47;;;29.20;;
14167;SDS011;7163;50.626;12.922;2023-02-23T17:44:39;59.23;;;28.20;;
14167;SDS011;7163;50.626;12.922;2023-02-23T17:49:39;46.23;;;26.60;;
14167;SDS011;7163;50.626;12.922;2023-02-23T17:54:40;49.40;;;26.03;;
14167;SDS011;7163;50.626;12.922;2023-02-23T17:59:40;55.93;;;29.33;;
14167;SDS011;7163;50.626;12.922;2023-02-23T18:04:41;56.67;;;29.53;;
14167;SDS011;7163;50.626;12.922;2023-02-23T18:09:42;45.97;;;24.80;;
14167;SDS011;7163;50.626;12.922;2023-02-23T18:14:42;52.37;;;26.47;;
14167;SDS011;7163;50.626;12.922;2023-02-23T18:19:44;64.47;;;29.27;;
14167;SDS011;7163;50.626;12.922;2023-02-23T18:24:44;44.93;;;24.93;;
14167;SDS011;7163;50.626;12.922;2023-02-23T18:29:44;50.10;;;28.13;;
14167;SDS011;7163;50.626;12.922;2023-02-23T18:34:45;47.27;;;26.63;;
14167;SDS011;7163;50.626;12.922;2023-02-23T18:39:45;55.53;;;27.40;;
14167;SDS011;7163;50.626;12.922;2023-02-23T18:44:51;46.23;;;24.50;;
14167;SDS011;7163;50.626;12.922;2023-02-23T18:49:51;59.70;;;28.00;;
14167;SDS011;7163;50.626;12.922;2023-02-23T18:54:51;53.80;;;27.90;;
14167;SDS011;7163;50.626;12.922;2023-02-23T18:59:52;117.13;;;49.97;;
14167;SDS011;7163;50.626;12.922;2023-02-23T19:04:52;138.97;;;56.33;;
14167;SDS011;7163;50.626;12.922;2023-02-23T19:09:53;58.33;;;29.70;;
14167;SDS011;7163;50.626;12.922;2023-02-23T19:14:53;67.47;;;36.83;;
14167;SDS011;7163;50.626;12.922;2023-02-23T19:19:55;62.73;;;30.07;;
14167;SDS011;7163;50.626;12.922;2023-02-23T19:24:56;54.80;;;30.40;;
14167;SDS011;7163;50.626;12.922;2023-02-23T19:29:56;59.07;;;30.83;;
14167;SDS011;7163;50.626;12.922;2023-02-23T19:34:56;89.07;;;33.47;;
14167;SDS011;7163;50.626;12.922;2023-02-23T19:39:57;62.47;;;30.30;;
14167;SDS011;7163;50.626;12.922;2023-02-23T19:44:57;57.60;;;29.33;;
14167;SDS011;7163;50.626;12.922;2023-02-23T19:49:58;65.47;;;31.80;;
14167;SDS011;7163;50.626;12.922;2023-02-23T19:54:59;82.93;;;33.67;;
14167;SDS011;7163;50.626;12.922;2023-02-23T20:00:00;63.03;;;29.60;;
14167;SDS011;7163;50.626;12.922;2023-02-23T20:05:00;50.53;;;26.13;;
14167;SDS011;7163;50.626;12.922;2023-02-23T20:10:01;44.40;;;23.40;;
14167;SDS011;7163;50.626;12.922;2023-02-23T20:15:04;51.20;;;24.83;;
14167;SDS011;7163;50.626;12.922;2023-02-23T20:20:05;57.67;;;24.50;;
14167;SDS011;7163;50.626;12.922;2023-02-23T20:25:06;52.93;;;23.47;;
14167;SDS011;7163;50.626;12.922;2023-02-23T20:30:09;38.77;;;19.80;;
14167;SDS011;7163;50.626;12.922;2023-02-23T20:35:12;37.70;;;18.90;;
14167;SDS011;7163;50.626;12.922;2023-02-23T20:40:14;33.03;;;18.40;;
14167;SDS011;7163;50.626;12.922;2023-02-23T20:45:19;34.37;;;18.10;;
14167;SDS011;7163;50.626;12.922;2023-02-23T20:50:22;41.97;;;19.60;;
14167;SDS011;7163;50.626;12.922;2023-02-23T20:55:27;47.23;;;22.47;;
14167;SDS011;7163;50.626;12.922;2023-02-23T21:00:28;32.43;;;18.67;;
14167;SDS011;7163;50.626;12.922;2023-02-23T21:05:32;34.63;;;18.80;;
14167;SDS011;7163;50.626;12.922;2023-02-23T21:10:37;29.53;;;16.57;;
14167;SDS011;7163;50.626;12.922;2023-02-23T21:15:39;33.83;;;17.77;;
14167;SDS011;7163;50.626;12.922;2023-02-23T21:20:39;31.60;;;16.17;;
14167;SDS011;7163;50.626;12.922;2023-02-23T21:25:40;29.63;;;15.60;;
14167;SDS011;7163;50.626;12.922;2023-02-23T21:30:40;25.30;;;13.50;;
14167;SDS011;7163;50.626;12.922;2023-02-23T21:35:41;21.43;;;12.50;;
14167;SDS011;7163;50.626;12.922;2023-02-23T21:40:41;29.43;;;15.00;;
14167;SDS011;7163;50.626;12.922;2023-02-23T21:45:41;40.90;;;21.07;;
14167;SDS011;7163;50.626;12.922;2023-02-23T21:50:45;36.90;;;19.13;;
14167;SDS011;7163;50.626;12.922;2023-02-23T21:55:46;34.20;;;19.93;;
14167;SDS011;7163;50.626;12.922;2023-02-23T22:00:46;47.43;;;22.60;;
14167;SDS011;7163;50.626;12.922;2023-02-23T22:05:50;37.33;;;20.13;;
14167;SDS011;7163;50.626;12.922;2023-02-23T22:10:50;31.27;;;18.23;;
14167;SDS011;7163;50.626;12.922;2023-02-23T22:15:56;32.23;;;17.23;;
14167;SDS011;7163;50.626;12.922;2023-02-23T22:20:58;41.67;;;18.90;;
14167;SDS011;7163;50.626;12.922;2023-02-23T22:25:59;29.90;;;15.77;;
14167;SDS011;7163;50.626;12.922;2023-02-23T22:31:07;30.73;;;16.60;;
14167;SDS011;7163;50.626;12.922;2023-02-23T22:36:11;31.60;;;17.70;;
14167;SDS011;7163;50.626;12.922;2023-02-23T22:41:12;33.23;;;18.83;;
14167;SDS011;7163;50.626;12.922;2023-02-23T22:46:13;32.97;;;19.40;;
14167;SDS011;7163;50.626;12.922;2023-02-23T22:51:15;39.70;;;20.60;;
14167;SDS011;7163;50.626;12.922;2023-02-23T22:56:16;41.30;;;22.00;;
14167;SDS011;7163;50.626;12.922;2023-02-23T23:01:20;74.27;;;26.37;;
14167;SDS011;7163;50.626;12.922;2023-02-23T23:06:20;51.57;;;26.30;;
14167;SDS011;7163;50.626;12.922;2023-02-23T23:11:25;54.70;;;27.23;;
14167;SDS011;7163;50.626;12.922;2023-02-23T23:16:28;54.33;;;28.03;;
14167;SDS011;7163;50.626;12.922;2023-02-23T23:21:31;59.83;;;28.67;;
14167;SDS011;7163;50.626;12.922;2023-02-23T23:26:33;67.37;;;30.13;;
14167;SDS011;7163;50.626;12.922;2023-02-23T23:31:35;74.80;;;33.27;;
14167;SDS011;7163;50.626;12.922;2023-02-23T23:36:37;68.00;;;31.87;;
14167;SDS011;7163;50.626;12.922;2023-02-23T23:41:42;59.90;;;31.07;;
14167;SDS011;7163;50.626;12.922;2023-02-23T23:46:45;60.20;;;29.87;;
14167;SDS011;7163;50.626;12.922;2023-02-23T23:51:47;58.03;;;26.47;;
14167;SDS011;7163;50.626;12.922;2023-02-23T23:56:49;46.73;;;24.70;;
